createdAt,value
2022-10-19T00:02:27.089Z,84.44
2022-10-19T00:07:27.053Z,84.54
2022-10-19T00:12:27.285Z,84.14
2022-10-19T00:17:27.029Z,84.52
2022-10-19T00:22:27.068Z,85.16
2022-10-19T00:27:27.132Z,84.83
2022-10-19T00:32:27.224Z,84.67
2022-10-19T00:37:27.421Z,84.38
2022-10-19T00:42:27.161Z,83.93
2022-10-19T00:47:27.437Z,85.70
2022-10-19T00:52:27.163Z,85.70
2022-10-19T00:57:27.307Z,85.97
2022-10-19T01:02:27.103Z,85.97
2022-10-19T01:07:27.277Z,86.48
2022-10-19T01:12:27.065Z,86.69
2022-10-19T01:17:27.244Z,85.07
2022-10-19T01:22:27.362Z,85.10
2022-10-19T01:27:27.176Z,85.27
2022-10-19T01:32:27.356Z,86.93
2022-10-19T01:37:27.464Z,88.07
2022-10-19T01:42:27.411Z,88.07
2022-10-19T01:47:27.129Z,88.26
2022-10-19T01:52:27.297Z,88.05
2022-10-19T01:57:27.090Z,88.05
2022-10-19T02:02:27.251Z,86.68
2022-10-19T02:07:27.407Z,86.75
2022-10-19T02:12:27.232Z,87.01
2022-10-19T02:17:27.255Z,87.60
2022-10-19T02:22:27.187Z,87.60
2022-10-19T02:27:27.328Z,87.37
2022-10-19T02:32:27.149Z,87.37
2022-10-19T02:37:27.208Z,86.31
2022-10-19T02:42:27.156Z,87.21
2022-10-19T02:47:27.094Z,87.33
2022-10-19T02:52:27.426Z,87.92
2022-10-19T02:57:27.123Z,87.01
2022-10-19T03:02:27.106Z,88.52
2022-10-19T03:07:27.121Z,87.89
2022-10-19T03:12:27.134Z,89.14
2022-10-19T03:17:27.140Z,90.62
2022-10-19T03:22:27.413Z,90.62
2022-10-19T03:27:27.335Z,90.39
2022-10-19T03:32:27.309Z,89.54
2022-10-19T03:37:27.440Z,89.58
2022-10-19T03:42:27.432Z,88.99
2022-10-19T03:47:27.413Z,89.96
2022-10-19T03:52:27.110Z,89.29
2022-10-19T03:57:27.363Z,90.45
2022-10-19T04:02:27.215Z,90.97
2022-10-19T04:07:27.403Z,91.01
2022-10-19T04:12:27.166Z,90.07
2022-10-19T04:17:27.318Z,90.07
2022-10-19T04:22:27.468Z,89.55
2022-10-19T04:27:27.269Z,89.55
2022-10-19T04:32:27.415Z,89.37
2022-10-19T04:37:27.263Z,89.79
2022-10-19T04:42:27.386Z,89.74
2022-10-19T04:47:27.202Z,88.78
2022-10-19T04:52:27.383Z,88.78
2022-10-19T04:57:27.173Z,88.86
2022-10-19T05:02:27.361Z,89.25
2022-10-19T05:07:27.491Z,90.49
2022-10-19T05:12:27.293Z,90.54
2022-10-19T05:22:27.296Z,90.21
2022-10-19T05:27:27.415Z,90.87
2022-10-19T05:32:27.235Z,90.62
2022-10-19T05:37:27.395Z,90.41
2022-10-19T05:42:27.225Z,90.73
2022-10-19T05:47:30.285Z,90.73
2022-10-19T05:52:27.534Z,91.02
2022-10-19T05:57:27.174Z,90.98
2022-10-19T06:02:27.196Z,90.70
2022-10-19T06:07:27.208Z,90.43
2022-10-19T06:12:27.160Z,89.55
2022-10-19T06:17:27.216Z,89.54
2022-10-19T06:22:27.374Z,89.68
2022-10-19T06:27:27.303Z,89.34
2022-10-19T06:32:27.638Z,89.24
2022-10-19T06:37:27.529Z,89.24
2022-10-19T06:42:27.381Z,89.09
2022-10-19T06:47:27.503Z,89.09
2022-10-19T06:52:27.335Z,87.13
2022-10-19T06:57:27.478Z,85.66
2022-10-19T07:02:27.287Z,85.20
2022-10-19T07:07:27.479Z,85.20
2022-10-19T07:12:27.238Z,83.94
2022-10-19T07:17:27.410Z,83.62
2022-10-19T07:22:28.258Z,83.05
2022-10-19T07:27:27.301Z,82.89
2022-10-19T07:32:27.769Z,82.89
2022-10-19T07:37:27.356Z,81.61
2022-10-19T07:42:27.492Z,75.73
2022-10-19T07:47:27.323Z,72.43
2022-10-19T07:52:27.461Z,71.46
2022-10-19T07:57:27.266Z,69.03
2022-10-19T08:02:34.908Z,66.55
2022-10-19T08:07:27.554Z,66.55
2022-10-19T08:12:27.412Z,62.02
2022-10-19T08:17:27.548Z,59.76
2022-10-19T08:22:27.343Z,58.20
2022-10-19T08:27:27.569Z,56.51
2022-10-19T08:32:27.322Z,56.13
2022-10-19T08:37:40.835Z,56.13
2022-10-19T08:42:27.295Z,51.74
2022-10-19T08:47:27.703Z,51.74
2022-10-19T08:52:30.778Z,49.96
2022-10-19T08:57:27.425Z,48.87
2022-10-19T09:02:27.282Z,47.42
2022-10-19T09:07:27.353Z,45.77
2022-10-19T09:12:27.299Z,45.77
2022-10-19T09:32:27.382Z,46.77
2022-10-19T09:42:27.611Z,44.62
2022-10-19T09:47:27.289Z,45.35
2022-10-19T09:52:27.326Z,46.35
2022-10-19T09:57:27.327Z,49.91
2022-10-19T10:02:27.368Z,49.37
2022-10-19T10:07:27.333Z,49.37
2022-10-19T10:12:27.313Z,50.57
2022-10-19T10:17:27.311Z,51.82
2022-10-19T10:22:27.820Z,51.82
2022-10-19T10:27:27.327Z,52.00
2022-10-19T10:32:27.304Z,51.57
2022-10-19T10:37:27.654Z,51.57
2022-10-19T10:42:27.443Z,48.69
2022-10-19T10:47:27.411Z,48.67
2022-10-19T10:52:27.463Z,47.32
2022-10-19T10:57:27.355Z,47.32
2022-10-19T11:02:27.318Z,47.51
2022-10-19T11:07:27.365Z,45.80
2022-10-19T11:12:30.437Z,45.80
2022-10-19T11:17:27.372Z,45.50
2022-10-19T11:22:27.654Z,46.47
2022-10-19T11:27:27.505Z,45.38
2022-10-19T11:32:27.643Z,45.29
2022-10-19T11:37:27.326Z,45.55
2022-10-19T11:42:27.569Z,44.80
2022-10-19T11:47:27.363Z,44.80
2022-10-19T11:52:27.631Z,46.27
2022-10-19T11:57:27.414Z,45.89
2022-10-19T12:02:27.442Z,45.89
2022-10-19T12:07:27.384Z,45.14
2022-10-19T12:12:27.519Z,45.63
2022-10-19T12:17:27.366Z,45.63
2022-10-19T12:22:27.465Z,46.50
2022-10-19T12:27:27.632Z,45.49
2022-10-19T12:32:27.360Z,45.49
2022-10-19T12:37:27.909Z,45.50
2022-10-19T12:42:27.375Z,43.40
2022-10-19T12:47:27.396Z,43.40
2022-10-19T12:52:27.408Z,43.93
2022-10-19T12:57:27.399Z,43.93
2022-10-19T13:02:27.479Z,44.04
2022-10-19T13:07:27.510Z,44.25
2022-10-19T13:12:27.400Z,44.00
2022-10-19T13:17:30.637Z,43.29
2022-10-19T13:22:27.413Z,43.29
2022-10-19T13:27:27.455Z,43.99
2022-10-19T13:32:27.393Z,43.41
2022-10-19T13:37:31.287Z,43.93
2022-10-19T13:47:27.466Z,43.54
2022-10-19T13:52:27.512Z,42.93
2022-10-19T13:57:27.430Z,42.66
2022-10-19T14:02:27.417Z,42.56
2022-10-19T14:07:27.661Z,43.19
2022-10-19T14:12:27.485Z,44.67
2022-10-19T14:17:27.418Z,45.88
2022-10-19T14:22:27.756Z,46.08
2022-10-19T14:27:27.580Z,46.08
2022-10-19T14:32:27.523Z,46.07
2022-10-19T14:37:27.453Z,46.30
2022-10-19T14:42:27.661Z,45.98
2022-10-19T14:47:27.459Z,46.08
2022-10-19T14:57:27.479Z,46.00
2022-10-19T15:02:27.583Z,45.68
2022-10-19T15:07:27.428Z,45.63
2022-10-19T15:12:27.629Z,45.61
2022-10-19T15:17:27.461Z,45.54
2022-10-19T15:22:27.470Z,45.54
2022-10-19T15:27:27.578Z,45.46
2022-10-19T15:32:27.494Z,44.94
2022-10-19T15:37:27.680Z,45.21
2022-10-19T15:42:27.819Z,45.21
2022-10-19T15:47:27.481Z,45.83
2022-10-19T15:52:27.795Z,46.06
2022-10-19T15:57:27.617Z,45.76
2022-10-19T16:02:27.464Z,46.36
2022-10-19T16:07:27.573Z,46.88
2022-10-19T16:12:27.504Z,46.88
2022-10-19T16:17:27.517Z,47.86
2022-10-19T16:22:28.495Z,47.97
2022-10-19T16:27:27.878Z,47.88
2022-10-19T16:32:27.460Z,48.52
2022-10-19T16:37:28.043Z,48.52
2022-10-19T16:42:30.408Z,48.43
2022-10-19T16:47:27.711Z,48.88
2022-10-19T16:52:27.606Z,49.59
2022-10-19T17:02:27.570Z,50.33
2022-10-19T17:07:27.769Z,50.74
2022-10-19T17:12:27.861Z,51.23
2022-10-19T17:17:27.755Z,51.53
2022-10-19T17:22:27.791Z,51.53
2022-10-19T17:32:27.761Z,52.29
2022-10-19T17:37:27.645Z,52.29
2022-10-19T17:42:28.049Z,53.43
2022-10-19T17:47:27.749Z,53.43
2022-10-19T17:52:28.024Z,53.93
2022-10-19T17:57:29.769Z,54.67
2022-10-19T18:02:28.509Z,55.17
2022-10-19T18:12:28.197Z,55.43
2022-10-19T18:17:27.943Z,56.06
2022-10-19T18:22:27.907Z,56.31
2022-10-19T18:27:27.868Z,56.87
2022-10-19T18:32:27.781Z,56.87
2022-10-19T18:37:28.129Z,57.32
2022-10-19T18:42:27.760Z,58.37
2022-10-19T18:47:27.829Z,58.72
2022-10-19T18:52:28.315Z,59.95
2022-10-19T18:57:31.588Z,59.95
2022-10-19T19:02:35.280Z,60.21
2022-10-19T19:07:28.397Z,60.37
2022-10-19T19:12:28.052Z,60.37
2022-10-19T19:17:27.843Z,59.54
2022-10-19T19:22:27.829Z,60.05
2022-10-19T19:27:31.546Z,60.43
2022-10-19T19:32:27.872Z,60.18
2022-10-19T19:37:27.867Z,61.27
2022-10-19T19:42:28.067Z,61.27
2022-10-19T19:47:27.596Z,63.04
2022-10-19T19:52:27.988Z,63.02
2022-10-19T19:57:27.849Z,66.02
2022-10-19T20:02:27.804Z,66.65
2022-10-19T20:07:27.894Z,66.65
2022-10-19T20:12:28.074Z,66.93
2022-10-19T20:17:27.721Z,67.57
2022-10-19T20:22:28.087Z,67.57
2022-10-19T20:27:27.988Z,67.75
2022-10-19T20:32:27.830Z,67.19
2022-10-19T20:37:28.881Z,67.60
2022-10-19T20:42:27.856Z,67.61
2022-10-19T20:47:27.832Z,66.90
2022-10-19T20:52:27.985Z,66.91
2022-10-19T20:57:28.109Z,67.03
2022-10-19T21:02:27.814Z,66.65
2022-10-19T21:07:27.923Z,66.65
2022-10-19T21:12:27.769Z,67.24
2022-10-19T21:17:27.675Z,68.04
2022-10-19T21:22:27.631Z,69.03
2022-10-19T21:27:27.844Z,69.84
2022-10-19T21:32:27.653Z,71.05
2022-10-19T21:37:27.837Z,71.05
2022-10-19T21:42:27.624Z,74.86
2022-10-19T21:47:27.644Z,72.33
2022-10-19T21:52:27.647Z,72.19
2022-10-19T21:57:27.742Z,71.98
2022-10-19T22:02:27.671Z,72.92
2022-10-19T22:07:27.671Z,73.53
2022-10-19T22:17:27.962Z,73.93
2022-10-19T22:22:27.832Z,76.71
2022-10-19T22:27:27.786Z,75.53
2022-10-19T22:32:27.646Z,75.53
2022-10-19T22:37:27.964Z,76.24
2022-10-19T22:42:27.662Z,76.24
2022-10-19T22:52:27.733Z,78.46
2022-10-19T22:57:27.876Z,78.03
2022-10-19T23:02:27.689Z,76.78
2022-10-19T23:07:27.686Z,79.87
2022-10-19T23:12:28.014Z,81.03
2022-10-19T23:17:27.699Z,80.22
2022-10-19T23:27:27.761Z,79.42
2022-10-19T23:32:27.660Z,81.17
2022-10-19T23:37:27.788Z,79.82
2022-10-19T23:42:27.900Z,79.82
2022-10-19T23:47:27.686Z,78.75
2022-10-19T23:52:27.659Z,78.75
2022-10-19T23:57:28.035Z,80.22
